Weather at Magadi Airport

Public forecast

Using degrees Celsius for public forecast. Weather courtesy of forecast.io.

Closest aviation weather report (METAR) to Magadi Airport

Closest report is Nairobi Wilson Airport, 49.3 nm (91.3 km) NE.

2024/05/21 16:00 (retrieved 21 minutes ago)

HKNW 211600Z 00000KT 9999 FEW023CB BKN024 BKN080 20/16 Q1024 RESHRA

Closest aviation forecast (TAF) to Magadi Airport

Closest forecast is Nairobi Wilson Airport, 49.3 nm (91.3 km) NE.

2024/05/21 12:03 (retrieved 4 hours ago)

TAF TAF HKNW 211100Z 2112/2212 20010KT 9999 BKN026 TEMPO 2115/2119 -SHRA FEW020CB SCT021 BKN080 BECMG 2120/2123 VRB02KT NSW BKN016 BECMG 2208/2211 16010KT BKN025